sensor_id;sensor_type;location;lat;lon;timestamp;P1;durP1;ratioP1;P2;durP2;ratioP2
73699;SDS011;62005;50.082;8.988;2022-10-16T00:01:19;0.57;;;0.10;;
73699;SDS011;62005;50.082;8.988;2022-10-16T00:03:46;1.85;;;0.10;;
73699;SDS011;62005;50.082;8.988;2022-10-16T00:06:12;2.38;;;0.10;;
73699;SDS011;62005;50.082;8.988;2022-10-16T00:08:39;1.08;;;0.10;;
73699;SDS011;62005;50.082;8.988;2022-10-16T00:11:06;0.40;;;0.20;;
73699;SDS011;62005;50.082;8.988;2022-10-16T00:13:40;1.60;;;0.20;;
73699;SDS011;62005;50.082;8.988;2022-10-16T00:16:07;2.97;;;0.20;;
73699;SDS011;62005;50.082;8.988;2022-10-16T00:18:34;1.42;;;0.30;;
73699;SDS011;62005;50.082;8.988;2022-10-16T00:21:06;1.20;;;0.32;;
73699;SDS011;62005;50.082;8.988;2022-10-16T00:23:36;4.88;;;0.15;;
73699;SDS011;62005;50.082;8.988;2022-10-16T00:26:04;0.60;;;0.10;;
73699;SDS011;62005;50.082;8.988;2022-10-16T00:28:31;1.55;;;0.30;;
73699;SDS011;62005;50.082;8.988;2022-10-16T00:30:57;0.75;;;0.10;;
73699;SDS011;62005;50.082;8.988;2022-10-16T00:33:22;0.80;;;0.10;;
73699;SDS011;62005;50.082;8.988;2022-10-16T00:35:48;0.80;;;0.30;;
73699;SDS011;62005;50.082;8.988;2022-10-16T00:38:13;5.00;;;0.20;;
73699;SDS011;62005;50.082;8.988;2022-10-16T00:40:39;3.22;;;0.38;;
73699;SDS011;62005;50.082;8.988;2022-10-16T00:43:32;2.08;;;0.28;;
73699;SDS011;62005;50.082;8.988;2022-10-16T00:46:04;2.25;;;0.45;;
73699;SDS011;62005;50.082;8.988;2022-10-16T00:49:07;1.73;;;0.20;;
73699;SDS011;62005;50.082;8.988;2022-10-16T00:51:36;2.35;;;0.35;;
73699;SDS011;62005;50.082;8.988;2022-10-16T00:54:10;3.58;;;0.55;;
73699;SDS011;62005;50.082;8.988;2022-10-16T00:56:40;1.67;;;0.13;;
73699;SDS011;62005;50.082;8.988;2022-10-16T00:59:18;6.93;;;0.35;;
73699;SDS011;62005;50.082;8.988;2022-10-16T01:01:45;1.02;;;0.30;;
73699;SDS011;62005;50.082;8.988;2022-10-16T01:04:10;0.98;;;0.28;;
73699;SDS011;62005;50.082;8.988;2022-10-16T01:09:31;2.22;;;0.30;;
73699;SDS011;62005;50.082;8.988;2022-10-16T01:17:03;1.05;;;0.28;;
73699;SDS011;62005;50.082;8.988;2022-10-16T01:22:16;3.00;;;0.20;;
73699;SDS011;62005;50.082;8.988;2022-10-16T01:24:45;0.90;;;0.20;;
73699;SDS011;62005;50.082;8.988;2022-10-16T01:27:15;1.27;;;0.20;;
73699;SDS011;62005;50.082;8.988;2022-10-16T01:35:14;0.82;;;0.25;;
73699;SDS011;62005;50.082;8.988;2022-10-16T01:37:49;1.15;;;0.20;;
73699;SDS011;62005;50.082;8.988;2022-10-16T01:40:21;1.13;;;0.30;;
73699;SDS011;62005;50.082;8.988;2022-10-16T01:43:10;1.13;;;0.20;;
73699;SDS011;62005;50.082;8.988;2022-10-16T01:45:40;1.25;;;0.63;;
73699;SDS011;62005;50.082;8.988;2022-10-16T01:48:06;0.57;;;0.13;;
73699;SDS011;62005;50.082;8.988;2022-10-16T01:50:35;0.93;;;0.20;;
73699;SDS011;62005;50.082;8.988;2022-10-16T01:53:05;3.60;;;0.13;;
73699;SDS011;62005;50.082;8.988;2022-10-16T01:55:35;2.78;;;0.20;;
73699;SDS011;62005;50.082;8.988;2022-10-16T01:58:08;0.60;;;0.10;;
73699;SDS011;62005;50.082;8.988;2022-10-16T02:00:37;1.55;;;0.20;;
73699;SDS011;62005;50.082;8.988;2022-10-16T02:03:05;2.03;;;0.40;;
73699;SDS011;62005;50.082;8.988;2022-10-16T02:05:36;1.88;;;0.20;;
73699;SDS011;62005;50.082;8.988;2022-10-16T02:08:07;2.22;;;0.20;;
73699;SDS011;62005;50.082;8.988;2022-10-16T02:10:34;0.70;;;0.20;;
73699;SDS011;62005;50.082;8.988;2022-10-16T02:13:24;0.60;;;0.10;;
73699;SDS011;62005;50.082;8.988;2022-10-16T02:15:52;1.48;;;0.10;;
73699;SDS011;62005;50.082;8.988;2022-10-16T02:18:18;0.80;;;0.13;;
73699;SDS011;62005;50.082;8.988;2022-10-16T02:20:47;0.60;;;0.10;;
73699;SDS011;62005;50.082;8.988;2022-10-16T02:29:17;1.00;;;0.10;;
73699;SDS011;62005;50.082;8.988;2022-10-16T02:31:46;4.07;;;0.25;;
73699;SDS011;62005;50.082;8.988;2022-10-16T02:34:17;1.10;;;0.08;;
73699;SDS011;62005;50.082;8.988;2022-10-16T02:36:45;0.60;;;0.03;;
73699;SDS011;62005;50.082;8.988;2022-10-16T02:39:15;1.35;;;0.10;;
73699;SDS011;62005;50.082;8.988;2022-10-16T02:41:42;2.78;;;0.10;;
73699;SDS011;62005;50.082;8.988;2022-10-16T02:44:10;2.15;;;0.10;;
73699;SDS011;62005;50.082;8.988;2022-10-16T02:46:36;0.43;;;0.10;;
73699;SDS011;62005;50.082;8.988;2022-10-16T02:49:01;0.63;;;0.20;;
73699;SDS011;62005;50.082;8.988;2022-10-16T02:51:27;0.50;;;0.10;;
73699;SDS011;62005;50.082;8.988;2022-10-16T02:53:55;1.17;;;0.10;;
73699;SDS011;62005;50.082;8.988;2022-10-16T02:56:21;0.38;;;0.10;;
73699;SDS011;62005;50.082;8.988;2022-10-16T02:58:46;1.45;;;0.03;;
73699;SDS011;62005;50.082;8.988;2022-10-16T03:01:12;1.45;;;0.10;;
73699;SDS011;62005;50.082;8.988;2022-10-16T03:06:04;2.73;;;0.10;;
73699;SDS011;62005;50.082;8.988;2022-10-16T03:08:33;1.73;;;0.03;;
73699;SDS011;62005;50.082;8.988;2022-10-16T03:10:59;1.63;;;0.10;;
73699;SDS011;62005;50.082;8.988;2022-10-16T03:13:25;1.45;;;0.10;;
73699;SDS011;62005;50.082;8.988;2022-10-16T03:15:50;0.70;;;0.37;;
73699;SDS011;62005;50.082;8.988;2022-10-16T03:18:16;0.57;;;0.00;;
73699;SDS011;62005;50.082;8.988;2022-10-16T03:20:42;2.95;;;0.10;;
73699;SDS011;62005;50.082;8.988;2022-10-16T03:23:08;1.00;;;0.00;;
73699;SDS011;62005;50.082;8.988;2022-10-16T03:25:33;1.33;;;0.25;;
73699;SDS011;62005;50.082;8.988;2022-10-16T03:28:01;0.65;;;0.03;;
73699;SDS011;62005;50.082;8.988;2022-10-16T03:30:35;0.77;;;0.20;;
73699;SDS011;62005;50.082;8.988;2022-10-16T03:33:01;0.55;;;0.10;;
73699;SDS011;62005;50.082;8.988;2022-10-16T03:35:28;0.70;;;0.20;;
73699;SDS011;62005;50.082;8.988;2022-10-16T03:37:54;0.38;;;0.10;;
73699;SDS011;62005;50.082;8.988;2022-10-16T03:40:20;0.90;;;0.10;;
73699;SDS011;62005;50.082;8.988;2022-10-16T03:42:45;0.82;;;0.15;;
73699;SDS011;62005;50.082;8.988;2022-10-16T03:45:11;0.32;;;0.00;;
73699;SDS011;62005;50.082;8.988;2022-10-16T03:47:36;0.38;;;0.10;;
73699;SDS011;62005;50.082;8.988;2022-10-16T03:50:05;2.33;;;0.15;;
73699;SDS011;62005;50.082;8.988;2022-10-16T03:52:31;0.40;;;0.10;;
73699;SDS011;62005;50.082;8.988;2022-10-16T03:54:57;1.60;;;0.20;;
73699;SDS011;62005;50.082;8.988;2022-10-16T03:57:24;1.02;;;0.10;;
73699;SDS011;62005;50.082;8.988;2022-10-16T03:59:49;0.60;;;0.10;;
73699;SDS011;62005;50.082;8.988;2022-10-16T04:02:15;2.63;;;0.22;;
73699;SDS011;62005;50.082;8.988;2022-10-16T04:04:41;3.50;;;0.20;;
73699;SDS011;62005;50.082;8.988;2022-10-16T04:07:06;2.78;;;0.13;;
73699;SDS011;62005;50.082;8.988;2022-10-16T04:09:32;3.35;;;0.30;;
73699;SDS011;62005;50.082;8.988;2022-10-16T04:11:57;1.75;;;0.13;;
73699;SDS011;62005;50.082;8.988;2022-10-16T04:14:22;1.92;;;0.32;;
73699;SDS011;62005;50.082;8.988;2022-10-16T04:16:48;1.80;;;0.10;;
73699;SDS011;62005;50.082;8.988;2022-10-16T04:19:14;1.20;;;0.35;;
73699;SDS011;62005;50.082;8.988;2022-10-16T04:21:40;0.60;;;0.15;;
73699;SDS011;62005;50.082;8.988;2022-10-16T04:24:05;0.50;;;0.10;;
73699;SDS011;62005;50.082;8.988;2022-10-16T04:26:31;0.70;;;0.20;;
73699;SDS011;62005;50.082;8.988;2022-10-16T04:28:59;0.80;;;0.20;;
73699;SDS011;62005;50.082;8.988;2022-10-16T04:31:25;0.80;;;0.13;;
73699;SDS011;62005;50.082;8.988;2022-10-16T04:33:51;2.20;;;0.30;;
73699;SDS011;62005;50.082;8.988;2022-10-16T04:36:16;0.60;;;0.10;;
73699;SDS011;62005;50.082;8.988;2022-10-16T04:38:42;0.77;;;0.20;;
73699;SDS011;62005;50.082;8.988;2022-10-16T04:41:07;1.90;;;0.25;;
73699;SDS011;62005;50.082;8.988;2022-10-16T04:43:38;1.00;;;0.32;;
73699;SDS011;62005;50.082;8.988;2022-10-16T04:46:29;1.52;;;0.22;;
73699;SDS011;62005;50.082;8.988;2022-10-16T04:48:55;1.45;;;0.30;;
73699;SDS011;62005;50.082;8.988;2022-10-16T04:51:20;3.30;;;0.47;;
73699;SDS011;62005;50.082;8.988;2022-10-16T04:53:46;0.80;;;0.22;;
73699;SDS011;62005;50.082;8.988;2022-10-16T04:56:11;1.40;;;0.80;;
73699;SDS011;62005;50.082;8.988;2022-10-16T04:58:36;2.90;;;0.50;;
73699;SDS011;62005;50.082;8.988;2022-10-16T05:01:02;3.50;;;0.45;;
73699;SDS011;62005;50.082;8.988;2022-10-16T05:03:29;3.42;;;0.40;;
73699;SDS011;62005;50.082;8.988;2022-10-16T05:05:55;3.00;;;0.32;;
73699;SDS011;62005;50.082;8.988;2022-10-16T05:08:21;2.13;;;0.20;;
73699;SDS011;62005;50.082;8.988;2022-10-16T05:10:48;2.55;;;0.45;;
73699;SDS011;62005;50.082;8.988;2022-10-16T05:13:13;1.13;;;0.40;;
73699;SDS011;62005;50.082;8.988;2022-10-16T05:15:39;3.08;;;0.50;;
73699;SDS011;62005;50.082;8.988;2022-10-16T05:18:05;1.17;;;0.22;;
73699;SDS011;62005;50.082;8.988;2022-10-16T05:20:30;5.28;;;0.43;;
73699;SDS011;62005;50.082;8.988;2022-10-16T05:22:56;1.35;;;0.52;;
73699;SDS011;62005;50.082;8.988;2022-10-16T05:25:21;1.73;;;0.28;;
73699;SDS011;62005;50.082;8.988;2022-10-16T05:27:47;1.85;;;0.50;;
73699;SDS011;62005;50.082;8.988;2022-10-16T05:30:13;1.63;;;0.63;;
73699;SDS011;62005;50.082;8.988;2022-10-16T05:32:41;3.47;;;0.50;;
73699;SDS011;62005;50.082;8.988;2022-10-16T05:35:11;7.28;;;1.25;;
73699;SDS011;62005;50.082;8.988;2022-10-16T05:37:36;1.83;;;0.60;;
73699;SDS011;62005;50.082;8.988;2022-10-16T05:40:02;1.27;;;0.40;;
73699;SDS011;62005;50.082;8.988;2022-10-16T05:42:29;1.25;;;0.40;;
73699;SDS011;62005;50.082;8.988;2022-10-16T05:44:55;1.80;;;0.60;;
73699;SDS011;62005;50.082;8.988;2022-10-16T05:47:20;1.50;;;0.40;;
73699;SDS011;62005;50.082;8.988;2022-10-16T05:50:06;1.35;;;0.47;;
73699;SDS011;62005;50.082;8.988;2022-10-16T05:52:32;2.47;;;0.82;;
73699;SDS011;62005;50.082;8.988;2022-10-16T05:54:58;3.67;;;0.93;;
73699;SDS011;62005;50.082;8.988;2022-10-16T05:57:24;3.38;;;1.25;;
73699;SDS011;62005;50.082;8.988;2022-10-16T05:59:50;2.80;;;0.90;;
73699;SDS011;62005;50.082;8.988;2022-10-16T06:02:15;2.38;;;0.80;;
73699;SDS011;62005;50.082;8.988;2022-10-16T06:04:41;1.80;;;0.65;;
73699;SDS011;62005;50.082;8.988;2022-10-16T06:07:06;2.50;;;0.70;;
73699;SDS011;62005;50.082;8.988;2022-10-16T06:09:32;5.38;;;1.05;;
73699;SDS011;62005;50.082;8.988;2022-10-16T06:12:01;3.65;;;0.82;;
73699;SDS011;62005;50.082;8.988;2022-10-16T06:14:26;1.80;;;0.75;;
73699;SDS011;62005;50.082;8.988;2022-10-16T06:16:51;1.65;;;0.82;;
73699;SDS011;62005;50.082;8.988;2022-10-16T06:19:20;2.15;;;0.60;;
73699;SDS011;62005;50.082;8.988;2022-10-16T06:21:48;1.52;;;0.90;;
73699;SDS011;62005;50.082;8.988;2022-10-16T06:24:14;3.88;;;0.98;;
73699;SDS011;62005;50.082;8.988;2022-10-16T06:26:43;4.70;;;1.13;;
73699;SDS011;62005;50.082;8.988;2022-10-16T06:29:08;6.88;;;1.27;;
73699;SDS011;62005;50.082;8.988;2022-10-16T06:31:34;3.72;;;0.90;;
73699;SDS011;62005;50.082;8.988;2022-10-16T06:34:01;2.05;;;0.70;;
73699;SDS011;62005;50.082;8.988;2022-10-16T06:36:30;1.10;;;0.40;;
73699;SDS011;62005;50.082;8.988;2022-10-16T06:38:55;3.15;;;0.85;;
73699;SDS011;62005;50.082;8.988;2022-10-16T06:41:22;1.30;;;0.40;;
73699;SDS011;62005;50.082;8.988;2022-10-16T06:53:40;1.73;;;0.63;;
73699;SDS011;62005;50.082;8.988;2022-10-16T06:56:20;1.73;;;0.50;;
73699;SDS011;62005;50.082;8.988;2022-10-16T06:59:08;1.45;;;0.57;;
73699;SDS011;62005;50.082;8.988;2022-10-16T07:01:42;1.38;;;0.52;;
73699;SDS011;62005;50.082;8.988;2022-10-16T07:04:15;2.95;;;0.50;;
73699;SDS011;62005;50.082;8.988;2022-10-16T07:06:44;2.15;;;0.57;;
73699;SDS011;62005;50.082;8.988;2022-10-16T07:09:14;1.95;;;0.65;;
73699;SDS011;62005;50.082;8.988;2022-10-16T07:11:43;2.40;;;0.68;;
73699;SDS011;62005;50.082;8.988;2022-10-16T07:14:20;2.33;;;0.90;;
73699;SDS011;62005;50.082;8.988;2022-10-16T07:16:47;3.80;;;0.93;;
73699;SDS011;62005;50.082;8.988;2022-10-16T07:19:16;2.25;;;0.82;;
73699;SDS011;62005;50.082;8.988;2022-10-16T07:21:48;1.40;;;0.40;;
73699;SDS011;62005;50.082;8.988;2022-10-16T07:24:18;2.53;;;0.73;;
73699;SDS011;62005;50.082;8.988;2022-10-16T07:26:55;2.42;;;0.50;;
73699;SDS011;62005;50.082;8.988;2022-10-16T07:29:21;1.55;;;0.40;;
73699;SDS011;62005;50.082;8.988;2022-10-16T07:31:53;1.83;;;0.40;;
73699;SDS011;62005;50.082;8.988;2022-10-16T07:34:18;3.10;;;0.63;;
73699;SDS011;62005;50.082;8.988;2022-10-16T07:36:54;2.42;;;0.70;;
73699;SDS011;62005;50.082;8.988;2022-10-16T07:39:24;2.85;;;0.32;;
73699;SDS011;62005;50.082;8.988;2022-10-16T07:42:04;1.13;;;0.35;;
73699;SDS011;62005;50.082;8.988;2022-10-16T07:44:31;3.25;;;0.60;;
73699;SDS011;62005;50.082;8.988;2022-10-16T07:46:56;1.25;;;0.60;;
73699;SDS011;62005;50.082;8.988;2022-10-16T07:49:28;2.85;;;0.60;;
73699;SDS011;62005;50.082;8.988;2022-10-16T07:52:01;2.17;;;0.52;;
73699;SDS011;62005;50.082;8.988;2022-10-16T07:55:01;2.67;;;0.50;;
73699;SDS011;62005;50.082;8.988;2022-10-16T07:57:26;2.65;;;0.65;;
73699;SDS011;62005;50.082;8.988;2022-10-16T07:59:53;4.93;;;0.60;;
73699;SDS011;62005;50.082;8.988;2022-10-16T08:02:18;1.73;;;0.50;;
73699;SDS011;62005;50.082;8.988;2022-10-16T08:04:46;2.20;;;0.57;;
73699;SDS011;62005;50.082;8.988;2022-10-16T08:07:12;0.93;;;0.30;;
73699;SDS011;62005;50.082;8.988;2022-10-16T08:09:41;2.78;;;0.60;;
73699;SDS011;62005;50.082;8.988;2022-10-16T08:12:13;3.97;;;0.98;;
73699;SDS011;62005;50.082;8.988;2022-10-16T08:14:39;4.15;;;0.60;;
73699;SDS011;62005;50.082;8.988;2022-10-16T08:17:04;3.28;;;0.50;;
73699;SDS011;62005;50.082;8.988;2022-10-16T08:19:30;1.65;;;0.52;;
73699;SDS011;62005;50.082;8.988;2022-10-16T08:21:56;5.35;;;1.02;;
73699;SDS011;62005;50.082;8.988;2022-10-16T08:24:22;1.58;;;0.50;;
73699;SDS011;62005;50.082;8.988;2022-10-16T08:26:52;2.40;;;0.95;;
73699;SDS011;62005;50.082;8.988;2022-10-16T08:29:18;6.38;;;1.05;;
73699;SDS011;62005;50.082;8.988;2022-10-16T08:31:44;4.43;;;1.37;;
73699;SDS011;62005;50.082;8.988;2022-10-16T08:34:09;2.58;;;0.50;;
73699;SDS011;62005;50.082;8.988;2022-10-16T08:36:36;6.40;;;0.85;;
73699;SDS011;62005;50.082;8.988;2022-10-16T08:39:01;2.38;;;1.00;;
73699;SDS011;62005;50.082;8.988;2022-10-16T08:41:46;4.57;;;1.10;;
73699;SDS011;62005;50.082;8.988;2022-10-16T08:44:30;2.90;;;1.20;;
73699;SDS011;62005;50.082;8.988;2022-10-16T08:47:17;4.28;;;1.10;;
73699;SDS011;62005;50.082;8.988;2022-10-16T08:50:07;3.03;;;0.90;;
73699;SDS011;62005;50.082;8.988;2022-10-16T08:52:35;4.40;;;0.80;;
73699;SDS011;62005;50.082;8.988;2022-10-16T08:55:04;2.70;;;0.77;;
73699;SDS011;62005;50.082;8.988;2022-10-16T08:57:32;2.53;;;0.68;;
73699;SDS011;62005;50.082;8.988;2022-10-16T09:00:05;2.58;;;0.80;;
73699;SDS011;62005;50.082;8.988;2022-10-16T09:08:20;2.38;;;1.02;;
73699;SDS011;62005;50.082;8.988;2022-10-16T09:10:58;3.08;;;1.42;;
73699;SDS011;62005;50.082;8.988;2022-10-16T09:13:43;6.07;;;1.63;;
73699;SDS011;62005;50.082;8.988;2022-10-16T09:19:13;5.50;;;1.30;;
73699;SDS011;62005;50.082;8.988;2022-10-16T09:21:45;3.97;;;1.90;;
73699;SDS011;62005;50.082;8.988;2022-10-16T09:24:16;5.03;;;2.03;;
73699;SDS011;62005;50.082;8.988;2022-10-16T09:26:44;4.22;;;2.00;;
73699;SDS011;62005;50.082;8.988;2022-10-16T09:29:16;6.18;;;1.73;;
73699;SDS011;62005;50.082;8.988;2022-10-16T09:31:54;7.47;;;1.48;;
73699;SDS011;62005;50.082;8.988;2022-10-16T09:34:35;4.15;;;1.48;;
73699;SDS011;62005;50.082;8.988;2022-10-16T09:37:08;2.85;;;1.45;;
73699;SDS011;62005;50.082;8.988;2022-10-16T09:39:46;5.20;;;1.65;;
73699;SDS011;62005;50.082;8.988;2022-10-16T09:45:02;3.65;;;1.10;;
73699;SDS011;62005;50.082;8.988;2022-10-16T09:50:30;4.70;;;1.15;;
73699;SDS011;62005;50.082;8.988;2022-10-16T09:53:03;3.75;;;0.90;;
73699;SDS011;62005;50.082;8.988;2022-10-16T09:55:29;1.95;;;1.02;;
73699;SDS011;62005;50.082;8.988;2022-10-16T09:57:55;2.35;;;0.90;;
73699;SDS011;62005;50.082;8.988;2022-10-16T10:00:22;1.83;;;0.50;;
73699;SDS011;62005;50.082;8.988;2022-10-16T10:02:49;2.65;;;1.10;;
73699;SDS011;62005;50.082;8.988;2022-10-16T10:05:19;2.78;;;0.63;;
73699;SDS011;62005;50.082;8.988;2022-10-16T10:17:21;2.22;;;0.93;;
73699;SDS011;62005;50.082;8.988;2022-10-16T10:19:57;2.28;;;0.95;;
73699;SDS011;62005;50.082;8.988;2022-10-16T10:22:41;4.13;;;0.85;;
73699;SDS011;62005;50.082;8.988;2022-10-16T10:46:56;4.35;;;0.75;;
73699;SDS011;62005;50.082;8.988;2022-10-16T11:01:55;1.85;;;0.32;;
73699;SDS011;62005;50.082;8.988;2022-10-16T11:10:42;2.45;;;0.20;;
73699;SDS011;62005;50.082;8.988;2022-10-16T11:15:52;1.80;;;0.20;;
73699;SDS011;62005;50.082;8.988;2022-10-16T11:30:33;1.80;;;0.50;;
73699;SDS011;62005;50.082;8.988;2022-10-16T11:38:54;2.72;;;0.57;;
73699;SDS011;62005;50.082;8.988;2022-10-16T11:41:32;1.40;;;0.17;;
73699;SDS011;62005;50.082;8.988;2022-10-16T11:46:45;1.85;;;0.40;;
73699;SDS011;62005;50.082;8.988;2022-10-16T11:49:32;1.45;;;0.20;;
73699;SDS011;62005;50.082;8.988;2022-10-16T11:58:58;1.55;;;0.10;;
73699;SDS011;62005;50.082;8.988;2022-10-16T12:05:18;0.80;;;0.10;;
73699;SDS011;62005;50.082;8.988;2022-10-16T12:07:55;1.08;;;0.20;;
73699;SDS011;62005;50.082;8.988;2022-10-16T12:16:50;2.22;;;0.32;;
73699;SDS011;62005;50.082;8.988;2022-10-16T12:48:43;0.98;;;0.10;;
73699;SDS011;62005;50.082;8.988;2022-10-16T12:54:52;3.28;;;0.30;;
73699;SDS011;62005;50.082;8.988;2022-10-16T12:58:18;2.35;;;0.17;;
73699;SDS011;62005;50.082;8.988;2022-10-16T13:31:36;0.90;;;0.10;;
73699;SDS011;62005;50.082;8.988;2022-10-16T13:51:56;0.55;;;0.10;;
73699;SDS011;62005;50.082;8.988;2022-10-16T14:33:32;6.20;;;2.67;;
73699;SDS011;62005;50.082;8.988;2022-10-16T14:36:16;3.90;;;2.08;;
73699;SDS011;62005;50.082;8.988;2022-10-16T14:43:14;2.92;;;0.90;;
73699;SDS011;62005;50.082;8.988;2022-10-16T14:46:18;1.85;;;0.30;;
73699;SDS011;62005;50.082;8.988;2022-10-16T14:49:24;1.20;;;0.28;;
73699;SDS011;62005;50.082;8.988;2022-10-16T14:51:53;1.25;;;0.40;;
73699;SDS011;62005;50.082;8.988;2022-10-16T14:54:48;2.75;;;0.38;;
73699;SDS011;62005;50.082;8.988;2022-10-16T14:57:19;4.53;;;0.52;;
73699;SDS011;62005;50.082;8.988;2022-10-16T15:02:53;4.72;;;1.40;;
73699;SDS011;62005;50.082;8.988;2022-10-16T15:07:57;10.70;;;3.53;;
73699;SDS011;62005;50.082;8.988;2022-10-16T15:10:43;47.67;;;17.75;;
73699;SDS011;62005;50.082;8.988;2022-10-16T15:13:26;27.38;;;11.50;;
73699;SDS011;62005;50.082;8.988;2022-10-16T15:16:02;14.57;;;5.53;;
73699;SDS011;62005;50.082;8.988;2022-10-16T15:18:36;5.90;;;1.92;;
73699;SDS011;62005;50.082;8.988;2022-10-16T15:31:24;2.47;;;0.85;;
73699;SDS011;62005;50.082;8.988;2022-10-16T15:37:21;1.58;;;0.50;;
73699;SDS011;62005;50.082;8.988;2022-10-16T15:40:38;4.72;;;0.60;;
73699;SDS011;62005;50.082;8.988;2022-10-16T17:08:52;4.00;;;0.43;;
73699;SDS011;62005;50.082;8.988;2022-10-16T17:11:30;2.60;;;0.57;;
73699;SDS011;62005;50.082;8.988;2022-10-16T17:20:52;6.18;;;1.83;;
73699;SDS011;62005;50.082;8.988;2022-10-16T17:26:54;9.52;;;3.15;;
73699;SDS011;62005;50.082;8.988;2022-10-16T17:29:20;4.18;;;1.45;;
73699;SDS011;62005;50.082;8.988;2022-10-16T17:31:46;6.45;;;1.40;;
73699;SDS011;62005;50.082;8.988;2022-10-16T17:51:35;6.65;;;1.08;;
73699;SDS011;62005;50.082;8.988;2022-10-16T17:54:01;4.45;;;1.27;;
73699;SDS011;62005;50.082;8.988;2022-10-16T17:56:27;7.72;;;1.65;;
73699;SDS011;62005;50.082;8.988;2022-10-16T18:02:03;4.85;;;0.88;;
73699;SDS011;62005;50.082;8.988;2022-10-16T18:32:24;4.28;;;0.63;;
73699;SDS011;62005;50.082;8.988;2022-10-16T18:58:13;4.93;;;1.63;;
73699;SDS011;62005;50.082;8.988;2022-10-16T19:01:01;5.43;;;1.65;;
73699;SDS011;62005;50.082;8.988;2022-10-16T19:06:27;4.80;;;1.83;;
73699;SDS011;62005;50.082;8.988;2022-10-16T19:09:09;4.65;;;1.73;;
73699;SDS011;62005;50.082;8.988;2022-10-16T19:56:23;6.13;;;3.03;;
73699;SDS011;62005;50.082;8.988;2022-10-16T20:02:13;4.60;;;1.67;;
73699;SDS011;62005;50.082;8.988;2022-10-16T20:04:38;2.90;;;1.50;;
73699;SDS011;62005;50.082;8.988;2022-10-16T20:07:04;3.50;;;1.43;;
73699;SDS011;62005;50.082;8.988;2022-10-16T20:26:50;2.97;;;1.10;;
73699;SDS011;62005;50.082;8.988;2022-10-16T20:29:21;3.88;;;1.42;;
73699;SDS011;62005;50.082;8.988;2022-10-16T20:31:47;3.40;;;1.35;;
73699;SDS011;62005;50.082;8.988;2022-10-16T21:01:25;3.72;;;1.58;;
73699;SDS011;62005;50.082;8.988;2022-10-16T22:03:17;2.22;;;0.85;;
73699;SDS011;62005;50.082;8.988;2022-10-16T22:12:45;8.18;;;1.42;;
73699;SDS011;62005;50.082;8.988;2022-10-16T22:15:10;7.57;;;0.90;;
73699;SDS011;62005;50.082;8.988;2022-10-16T23:00:12;5.75;;;1.40;;
73699;SDS011;62005;50.082;8.988;2022-10-16T23:02:39;3.20;;;1.02;;
73699;SDS011;62005;50.082;8.988;2022-10-16T23:17:18;2.00;;;0.57;;
73699;SDS011;62005;50.082;8.988;2022-10-16T23:19:44;1.83;;;0.52;;
73699;SDS011;62005;50.082;8.988;2022-10-16T23:33:24;1.90;;;0.73;;
